sensor_id;sensor_type;location;lat;lon;timestamp;pressure;altitude;pressure_sealevel;temperature;humidity
62617;BME280;62539;51.190;6.808;2023-04-15T00:00:12;100440.34;;;19.26;51.31
62617;BME280;62539;51.190;6.808;2023-04-15T00:02:37;100436.94;;;19.24;51.59
62617;BME280;62539;51.190;6.808;2023-04-15T00:05:04;100430.88;;;19.22;51.65
62617;BME280;62539;51.190;6.808;2023-04-15T00:07:30;100440.56;;;19.21;51.80
62617;BME280;62539;51.190;6.808;2023-04-15T00:09:57;100434.53;;;19.19;51.53
62617;BME280;62539;51.190;6.808;2023-04-15T00:12:23;100434.53;;;19.19;51.73
62617;BME280;62539;51.190;6.808;2023-04-15T00:14:50;100438.13;;;19.17;51.85
62617;BME280;62539;51.190;6.808;2023-04-15T00:17:16;100433.78;;;19.16;51.80
62617;BME280;62539;51.190;6.808;2023-04-15T00:19:41;100433.00;;;19.14;51.83
62617;BME280;62539;51.190;6.808;2023-04-15T00:22:08;100437.47;;;19.12;51.81
62617;BME280;62539;51.190;6.808;2023-04-15T00:24:34;100438.38;;;19.10;51.80
62617;BME280;62539;51.190;6.808;2023-04-15T00:26:59;100441.09;;;19.09;51.68
62617;BME280;62539;51.190;6.808;2023-04-15T00:29:25;100433.25;;;19.07;51.84
62617;BME280;62539;51.190;6.808;2023-04-15T00:31:50;100435.97;;;19.06;51.99
62617;BME280;62539;51.190;6.808;2023-04-15T00:34:16;100433.38;;;19.04;51.96
62617;BME280;62539;51.190;6.808;2023-04-15T00:36:41;100431.66;;;19.03;51.92
62617;BME280;62539;51.190;6.808;2023-04-15T00:39:07;100435.22;;;19.02;51.90
62617;BME280;62539;51.190;6.808;2023-04-15T00:41:33;100433.50;;;19.01;51.83
62617;BME280;62539;51.190;6.808;2023-04-15T00:44:00;100442.31;;;19.00;51.95
62617;BME280;62539;51.190;6.808;2023-04-15T00:46:28;100439.75;;;18.99;52.07
62617;BME280;62539;51.190;6.808;2023-04-15T00:48:55;100442.44;;;18.97;52.09
62617;BME280;62539;51.190;6.808;2023-04-15T00:51:21;100433.72;;;18.95;52.21
62617;BME280;62539;51.190;6.808;2023-04-15T00:53:46;100443.41;;;18.94;52.11
62617;BME280;62539;51.190;6.808;2023-04-15T00:56:12;100438.28;;;18.91;52.06
62617;BME280;62539;51.190;6.808;2023-04-15T00:58:38;100438.31;;;18.90;52.17
62617;BME280;62539;51.190;6.808;2023-04-15T01:01:04;100443.59;;;18.90;52.12
62617;BME280;62539;51.190;6.808;2023-04-15T01:03:29;100440.13;;;18.89;52.22
62617;BME280;62539;51.190;6.808;2023-04-15T01:05:55;100437.53;;;18.88;52.18
62617;BME280;62539;51.190;6.808;2023-04-15T01:08:31;100446.34;;;18.87;52.11
62617;BME280;62539;51.190;6.808;2023-04-15T01:10:57;100435.03;;;18.85;52.12
62617;BME280;62539;51.190;6.808;2023-04-15T01:13:26;100440.38;;;18.83;52.26
62617;BME280;62539;51.190;6.808;2023-04-15T01:15:52;100442.13;;;18.83;52.20
62617;BME280;62539;51.190;6.808;2023-04-15T01:18:18;100437.78;;;18.81;52.41
62617;BME280;62539;51.190;6.808;2023-04-15T01:20:44;100440.50;;;18.80;52.32
62617;BME280;62539;51.190;6.808;2023-04-15T01:23:10;100435.28;;;18.78;52.36
62617;BME280;62539;51.190;6.808;2023-04-15T01:25:37;100434.44;;;18.78;52.22
62617;BME280;62539;51.190;6.808;2023-04-15T01:28:03;100433.66;;;18.76;52.45
62617;BME280;62539;51.190;6.808;2023-04-15T01:30:33;100438.03;;;18.75;52.40
62617;BME280;62539;51.190;6.808;2023-04-15T01:32:58;100439.88;;;18.73;52.35
62617;BME280;62539;51.190;6.808;2023-04-15T01:35:24;100435.53;;;18.72;52.44
62617;BME280;62539;51.190;6.808;2023-04-15T01:37:49;100439.06;;;18.71;52.52
62617;BME280;62539;51.190;6.808;2023-04-15T01:40:15;100444.41;;;18.70;52.48
62617;BME280;62539;51.190;6.808;2023-04-15T01:42:41;100447.09;;;18.68;52.59
62617;BME280;62539;51.190;6.808;2023-04-15T01:45:07;100439.19;;;18.68;52.59
62617;BME280;62539;51.190;6.808;2023-04-15T01:47:33;100435.78;;;18.66;52.78
62617;BME280;62539;51.190;6.808;2023-04-15T01:49:58;100436.69;;;18.65;52.41
62617;BME280;62539;51.190;6.808;2023-04-15T01:52:23;100440.25;;;18.64;52.56
62617;BME280;62539;51.190;6.808;2023-04-15T01:54:49;100439.41;;;18.63;52.63
62617;BME280;62539;51.190;6.808;2023-04-15T01:57:15;100436.81;;;18.62;52.77
62617;BME280;62539;51.190;6.808;2023-04-15T01:59:40;100427.22;;;18.61;52.42
62617;BME280;62539;51.190;6.808;2023-04-15T02:02:06;100436.94;;;18.59;52.60
62617;BME280;62539;51.190;6.808;2023-04-15T02:04:31;100435.22;;;18.58;52.72
62617;BME280;62539;51.190;6.808;2023-04-15T02:06:58;100441.41;;;18.57;52.87
62617;BME280;62539;51.190;6.808;2023-04-15T02:09:24;100440.63;;;18.55;52.75
62617;BME280;62539;51.190;6.808;2023-04-15T02:11:50;100438.94;;;18.54;52.92
62617;BME280;62539;51.190;6.808;2023-04-15T02:14:17;100443.31;;;18.53;52.98
62617;BME280;62539;51.190;6.808;2023-04-15T02:16:42;100447.72;;;18.53;52.79
62617;BME280;62539;51.190;6.808;2023-04-15T02:19:07;100449.56;;;18.50;52.78
62617;BME280;62539;51.190;6.808;2023-04-15T02:21:33;100449.56;;;18.50;52.67
62617;BME280;62539;51.190;6.808;2023-04-15T02:23:59;100453.09;;;18.49;52.87
62617;BME280;62539;51.190;6.808;2023-04-15T02:26:26;100447.88;;;18.48;52.94
62617;BME280;62539;51.190;6.808;2023-04-15T02:28:52;100454.06;;;18.47;52.96
62617;BME280;62539;51.190;6.808;2023-04-15T02:31:17;100452.34;;;18.46;52.96
62617;BME280;62539;51.190;6.808;2023-04-15T02:33:43;100452.41;;;18.44;53.02
62617;BME280;62539;51.190;6.808;2023-04-15T02:36:08;100455.97;;;18.43;53.04
62617;BME280;62539;51.190;6.808;2023-04-15T02:38:35;100458.59;;;18.43;52.92
62617;BME280;62539;51.190;6.808;2023-04-15T02:41:02;100455.16;;;18.41;53.08
62617;BME280;62539;51.190;6.808;2023-04-15T02:43:27;100457.78;;;18.41;52.93
62617;BME280;62539;51.190;6.808;2023-04-15T02:45:52;100458.72;;;18.40;53.02
62617;BME280;62539;51.190;6.808;2023-04-15T02:48:18;100461.38;;;18.39;53.07
62617;BME280;62539;51.190;6.808;2023-04-15T02:50:45;100463.16;;;18.38;53.08
62617;BME280;62539;51.190;6.808;2023-04-15T02:53:11;100462.38;;;18.36;52.84
62617;BME280;62539;51.190;6.808;2023-04-15T02:55:38;100462.38;;;18.36;53.29
62617;BME280;62539;51.190;6.808;2023-04-15T02:58:04;100461.56;;;18.34;53.03
62617;BME280;62539;51.190;6.808;2023-04-15T03:00:29;100465.97;;;18.33;53.14
62617;BME280;62539;51.190;6.808;2023-04-15T03:03:02;100478.25;;;18.33;53.37
62617;BME280;62539;51.190;6.808;2023-04-15T03:05:29;100479.16;;;18.32;53.24
62617;BME280;62539;51.190;6.808;2023-04-15T03:07:54;100479.19;;;18.30;53.01
62617;BME280;62539;51.190;6.808;2023-04-15T03:10:20;100478.38;;;18.30;53.23
62617;BME280;62539;51.190;6.808;2023-04-15T03:12:46;100485.44;;;18.28;53.27
62617;BME280;62539;51.190;6.808;2023-04-15T03:15:12;100481.91;;;18.29;53.21
62617;BME280;62539;51.190;6.808;2023-04-15T03:17:38;100473.22;;;18.27;53.33
62617;BME280;62539;51.190;6.808;2023-04-15T03:20:06;100476.78;;;18.26;53.26
62617;BME280;62539;51.190;6.808;2023-04-15T03:22:32;100475.06;;;18.25;53.22
62617;BME280;62539;51.190;6.808;2023-04-15T03:24:57;100473.34;;;18.24;53.28
62617;BME280;62539;51.190;6.808;2023-04-15T03:27:24;100476.88;;;18.23;53.27
62617;BME280;62539;51.190;6.808;2023-04-15T03:29:49;100475.16;;;18.21;53.45
62617;BME280;62539;51.190;6.808;2023-04-15T03:32:15;100476.09;;;18.20;53.29
62617;BME280;62539;51.190;6.808;2023-04-15T03:34:40;100477.00;;;18.19;53.27
62617;BME280;62539;51.190;6.808;2023-04-15T03:37:06;100482.25;;;18.19;53.25
62617;BME280;62539;51.190;6.808;2023-04-15T03:39:32;100473.56;;;18.17;53.28
62617;BME280;62539;51.190;6.808;2023-04-15T03:41:58;100480.56;;;18.17;53.56
62617;BME280;62539;51.190;6.808;2023-04-15T03:44:25;100485.03;;;18.15;53.33
62617;BME280;62539;51.190;6.808;2023-04-15T03:46:50;100485.91;;;18.15;53.26
62617;BME280;62539;51.190;6.808;2023-04-15T03:49:16;100489.44;;;18.14;53.59
62617;BME280;62539;51.190;6.808;2023-04-15T03:51:41;100496.53;;;18.12;53.46
62617;BME280;62539;51.190;6.808;2023-04-15T03:54:06;100496.53;;;18.12;53.47
62617;BME280;62539;51.190;6.808;2023-04-15T03:56:32;100503.59;;;18.10;53.42
62617;BME280;62539;51.190;6.808;2023-04-15T03:58:57;100500.09;;;18.10;53.64
62617;BME280;62539;51.190;6.808;2023-04-15T04:01:22;100500.16;;;18.08;53.44
62617;BME280;62539;51.190;6.808;2023-04-15T04:03:48;100501.09;;;18.07;53.45
62617;BME280;62539;51.190;6.808;2023-04-15T04:06:13;100505.41;;;18.08;53.15
62617;BME280;62539;51.190;6.808;2023-04-15T04:08:39;100506.09;;;18.13;53.12
62617;BME280;62539;51.190;6.808;2023-04-15T04:11:05;100510.22;;;18.20;52.80
62617;BME280;62539;51.190;6.808;2023-04-15T04:13:30;100520.38;;;18.30;52.31
62617;BME280;62539;51.190;6.808;2023-04-15T04:15:56;100516.59;;;18.37;52.11
62617;BME280;62539;51.190;6.808;2023-04-15T04:18:21;100510.22;;;18.44;51.76
62617;BME280;62539;51.190;6.808;2023-04-15T04:20:47;100516.06;;;18.51;51.66
62617;BME280;62539;51.190;6.808;2023-04-15T04:23:12;100521.91;;;18.58;51.50
62617;BME280;62539;51.190;6.808;2023-04-15T04:25:37;100524.28;;;18.65;51.46
62617;BME280;62539;51.190;6.808;2023-04-15T04:28:03;100519.63;;;18.72;51.19
62617;BME280;62539;51.190;6.808;2023-04-15T04:30:28;100528.13;;;18.79;51.18
62617;BME280;62539;51.190;6.808;2023-04-15T04:32:54;100530.56;;;18.84;50.77
62617;BME280;62539;51.190;6.808;2023-04-15T04:35:19;100531.22;;;18.89;50.81
62617;BME280;62539;51.190;6.808;2023-04-15T04:37:46;100533.63;;;18.95;50.69
62617;BME280;62539;51.190;6.808;2023-04-15T04:40:11;100532.59;;;18.99;50.98
62617;BME280;62539;51.190;6.808;2023-04-15T04:42:37;100536.00;;;19.03;50.82
62617;BME280;62539;51.190;6.808;2023-04-15T04:45:03;100532.38;;;19.05;50.72
62617;BME280;62539;51.190;6.808;2023-04-15T04:47:29;100539.28;;;19.08;50.71
62617;BME280;62539;51.190;6.808;2023-04-15T04:49:54;100537.44;;;19.10;50.58
62617;BME280;62539;51.190;6.808;2023-04-15T04:52:20;100544.34;;;19.13;50.29
62617;BME280;62539;51.190;6.808;2023-04-15T04:54:45;100548.69;;;19.14;50.21
62617;BME280;62539;51.190;6.808;2023-04-15T04:57:11;100544.34;;;19.13;50.22
62617;BME280;62539;51.190;6.808;2023-04-15T04:59:38;100549.47;;;19.16;49.87
62617;BME280;62539;51.190;6.808;2023-04-15T05:02:03;100549.47;;;19.16;50.12
62617;BME280;62539;51.190;6.808;2023-04-15T05:04:30;100552.97;;;19.16;50.24
62617;BME280;62539;51.190;6.808;2023-04-15T05:06:56;100559.88;;;19.19;49.98
62617;BME280;62539;51.190;6.808;2023-04-15T05:09:22;100554.63;;;19.19;49.80
62617;BME280;62539;51.190;6.808;2023-04-15T05:11:47;100560.66;;;19.21;49.86
62617;BME280;62539;51.190;6.808;2023-04-15T05:14:13;100565.09;;;19.20;49.85
62617;BME280;62539;51.190;6.808;2023-04-15T05:16:38;100558.97;;;19.20;49.94
62617;BME280;62539;51.190;6.808;2023-04-15T05:19:04;100559.81;;;19.20;50.14
62617;BME280;62539;51.190;6.808;2023-04-15T05:21:29;100563.28;;;19.21;49.97
62617;BME280;62539;51.190;6.808;2023-04-15T05:23:55;100570.34;;;19.20;49.91
62617;BME280;62539;51.190;6.808;2023-04-15T05:26:21;100565.94;;;19.21;50.11
62617;BME280;62539;51.190;6.808;2023-04-15T05:28:48;100572.91;;;19.22;50.58
62617;BME280;62539;51.190;6.808;2023-04-15T05:31:14;100579.81;;;19.24;50.47
62617;BME280;62539;51.190;6.808;2023-04-15T05:33:40;100579.69;;;19.28;50.63
62617;BME280;62539;51.190;6.808;2023-04-15T05:36:06;100581.34;;;19.30;50.51
62617;BME280;62539;51.190;6.808;2023-04-15T05:38:32;100590.00;;;19.32;50.51
62617;BME280;62539;51.190;6.808;2023-04-15T05:40:57;100589.06;;;19.35;50.75
62617;BME280;62539;51.190;6.808;2023-04-15T05:43:23;100585.44;;;19.37;50.69
62617;BME280;62539;51.190;6.808;2023-04-15T05:45:48;100589.75;;;19.38;50.62
62617;BME280;62539;51.190;6.808;2023-04-15T05:48:14;100594.06;;;19.41;50.60
62617;BME280;62539;51.190;6.808;2023-04-15T05:50:40;100605.44;;;19.42;50.74
62617;BME280;62539;51.190;6.808;2023-04-15T05:53:07;100600.97;;;19.44;50.74
62617;BME280;62539;51.190;6.808;2023-04-15T05:55:32;100595.66;;;19.45;50.57
62617;BME280;62539;51.190;6.808;2023-04-15T05:57:58;100602.63;;;19.46;50.59
62617;BME280;62539;51.190;6.808;2023-04-15T06:00:23;100610.44;;;19.48;50.52
62617;BME280;62539;51.190;6.808;2023-04-15T06:02:49;100606.88;;;19.49;50.59
62617;BME280;62539;51.190;6.808;2023-04-15T06:05:14;100605.97;;;19.50;50.48
62617;BME280;62539;51.190;6.808;2023-04-15T06:07:40;100615.56;;;19.51;50.46
62617;BME280;62539;51.190;6.808;2023-04-15T06:10:06;100619.13;;;19.50;50.51
62617;BME280;62539;51.190;6.808;2023-04-15T06:12:32;100621.75;;;19.50;50.59
62617;BME280;62539;51.190;6.808;2023-04-15T06:14:57;100622.66;;;19.49;50.59
62617;BME280;62539;51.190;6.808;2023-04-15T06:17:23;100624.50;;;19.47;50.51
62617;BME280;62539;51.190;6.808;2023-04-15T06:19:48;100629.78;;;19.47;50.72
62617;BME280;62539;51.190;6.808;2023-04-15T06:22:19;100635.03;;;19.47;50.73
62617;BME280;62539;51.190;6.808;2023-04-15T06:24:46;100647.28;;;19.48;50.75
62617;BME280;62539;51.190;6.808;2023-04-15T06:27:11;100650.78;;;19.48;50.82
62617;BME280;62539;51.190;6.808;2023-04-15T06:29:37;100647.28;;;19.48;50.67
62617;BME280;62539;51.190;6.808;2023-04-15T06:32:02;100649.91;;;19.48;50.61
62617;BME280;62539;51.190;6.808;2023-04-15T06:34:28;100656.94;;;19.47;50.69
62617;BME280;62539;51.190;6.808;2023-04-15T06:36:53;100663.06;;;19.48;50.84
62617;BME280;62539;51.190;6.808;2023-04-15T06:39:18;100666.47;;;19.50;50.89
62617;BME280;62539;51.190;6.808;2023-04-15T06:41:44;100660.25;;;19.52;50.80
62617;BME280;62539;51.190;6.808;2023-04-15T06:44:09;100661.88;;;19.55;50.87
62617;BME280;62539;51.190;6.808;2023-04-15T06:46:35;100669.66;;;19.58;50.93
62617;BME280;62539;51.190;6.808;2023-04-15T06:49:00;100669.53;;;19.61;50.66
62617;BME280;62539;51.190;6.808;2023-04-15T06:51:26;100669.41;;;19.64;50.52
62617;BME280;62539;51.190;6.808;2023-04-15T06:53:51;100670.19;;;19.66;50.69
62617;BME280;62539;51.190;6.808;2023-04-15T06:56:17;100665.72;;;19.68;50.61
62617;BME280;62539;51.190;6.808;2023-04-15T06:58:42;100676.13;;;19.72;50.63
62617;BME280;62539;51.190;6.808;2023-04-15T07:01:08;100678.63;;;19.75;50.62
62617;BME280;62539;51.190;6.808;2023-04-15T07:03:33;100684.66;;;19.78;50.32
62617;BME280;62539;51.190;6.808;2023-04-15T07:05:59;100677.53;;;19.80;50.40
62617;BME280;62539;51.190;6.808;2023-04-15T07:08:25;100686.16;;;19.84;50.18
62617;BME280;62539;51.190;6.808;2023-04-15T07:10:51;100684.31;;;19.86;50.20
62617;BME280;62539;51.190;6.808;2023-04-15T07:13:16;100685.13;;;19.88;50.11
62617;BME280;62539;51.190;6.808;2023-04-15T07:15:41;100692.06;;;19.91;50.25
62617;BME280;62539;51.190;6.808;2023-04-15T07:18:07;100691.94;;;19.94;50.20
62617;BME280;62539;51.190;6.808;2023-04-15T07:20:33;100700.63;;;19.96;50.03
62617;BME280;62539;51.190;6.808;2023-04-15T07:22:59;100703.19;;;19.97;50.05
62617;BME280;62539;51.190;6.808;2023-04-15T07:25:24;100707.50;;;20.00;49.87
62617;BME280;62539;51.190;6.808;2023-04-15T07:27:49;100713.56;;;20.02;49.74
62617;BME280;62539;51.190;6.808;2023-04-15T07:30:15;100710.84;;;20.04;49.62
62617;BME280;62539;51.190;6.808;2023-04-15T07:32:41;100719.53;;;20.06;49.53
62617;BME280;62539;51.190;6.808;2023-04-15T07:35:07;100704.53;;;20.08;49.35
62617;BME280;62539;51.190;6.808;2023-04-15T07:37:33;100715.78;;;20.11;49.53
62617;BME280;62539;51.190;6.808;2023-04-15T07:39:59;100723.63;;;20.13;49.44
62617;BME280;62539;51.190;6.808;2023-04-15T07:42:25;100728.75;;;20.16;49.49
62617;BME280;62539;51.190;6.808;2023-04-15T07:44:50;100726.91;;;20.18;49.40
62617;BME280;62539;51.190;6.808;2023-04-15T07:47:16;100729.50;;;20.20;49.36
62617;BME280;62539;51.190;6.808;2023-04-15T07:49:41;100732.06;;;20.21;49.11
62617;BME280;62539;51.190;6.808;2023-04-15T07:52:07;100739.03;;;20.22;49.44
62617;BME280;62539;51.190;6.808;2023-04-15T07:54:32;100739.81;;;20.24;49.59
62617;BME280;62539;51.190;6.808;2023-04-15T07:56:58;100736.22;;;20.27;49.29
62617;BME280;62539;51.190;6.808;2023-04-15T07:59:23;100746.69;;;20.29;49.41
62617;BME280;62539;51.190;6.808;2023-04-15T08:01:49;100751.03;;;20.30;49.32
62617;BME280;62539;51.190;6.808;2023-04-15T08:04:14;100744.78;;;20.32;49.38
62617;BME280;62539;51.190;6.808;2023-04-15T08:06:40;100757.88;;;20.34;49.39
62617;BME280;62539;51.190;6.808;2023-04-15T08:09:05;100754.31;;;20.35;49.35
62617;BME280;62539;51.190;6.808;2023-04-15T08:11:32;100762.19;;;20.36;49.43
62617;BME280;62539;51.190;6.808;2023-04-15T08:13:57;100769.06;;;20.39;49.41
62617;BME280;62539;51.190;6.808;2023-04-15T08:16:24;100769.88;;;20.41;49.19
62617;BME280;62539;51.190;6.808;2023-04-15T08:18:53;100769.75;;;20.44;49.42
62617;BME280;62539;51.190;6.808;2023-04-15T08:21:20;100775.88;;;20.45;49.38
62617;BME280;62539;51.190;6.808;2023-04-15T08:23:47;100774.88;;;20.47;49.23
62617;BME280;62539;51.190;6.808;2023-04-15T08:26:14;100772.19;;;20.49;49.31
62617;BME280;62539;51.190;6.808;2023-04-15T08:28:40;100783.44;;;20.52;49.32
62617;BME280;62539;51.190;6.808;2023-04-15T08:31:07;100782.47;;;20.55;49.24
62617;BME280;62539;51.190;6.808;2023-04-15T08:33:33;100786.75;;;20.58;49.15
62617;BME280;62539;51.190;6.808;2023-04-15T08:35:59;100788.31;;;20.62;49.07
62617;BME280;62539;51.190;6.808;2023-04-15T08:38:24;100784.75;;;20.63;49.31
62617;BME280;62539;51.190;6.808;2023-04-15T08:40:50;100793.47;;;20.65;49.16
62617;BME280;62539;51.190;6.808;2023-04-15T08:43:22;100793.31;;;20.68;48.99
62617;BME280;62539;51.190;6.808;2023-04-15T08:45:53;100791.56;;;20.68;48.98
62617;BME280;62539;51.190;6.808;2023-04-15T08:48:20;100800.25;;;20.70;48.89
62617;BME280;62539;51.190;6.808;2023-04-15T08:50:47;100798.34;;;20.74;48.81
62617;BME280;62539;51.190;6.808;2023-04-15T08:53:13;100797.41;;;20.75;48.74
62617;BME280;62539;51.190;6.808;2023-04-15T08:55:45;100803.47;;;20.77;48.79
62617;BME280;62539;51.190;6.808;2023-04-15T08:58:15;100799.94;;;20.78;48.65
62617;BME280;62539;51.190;6.808;2023-04-15T09:00:41;100802.44;;;20.81;48.81
62617;BME280;62539;51.190;6.808;2023-04-15T09:03:07;100801.53;;;20.82;48.81
62617;BME280;62539;51.190;6.808;2023-04-15T09:05:35;100794.41;;;20.84;48.49
62617;BME280;62539;51.190;6.808;2023-04-15T09:08:01;100802.28;;;20.86;48.72
62617;BME280;62539;51.190;6.808;2023-04-15T09:10:28;100802.19;;;20.88;48.72
62617;BME280;62539;51.190;6.808;2023-04-15T09:12:54;100804.78;;;20.89;48.61
62617;BME280;62539;51.190;6.808;2023-04-15T09:15:23;100812.53;;;20.92;48.66
62617;BME280;62539;51.190;6.808;2023-04-15T09:17:50;100816.81;;;20.95;48.58
62617;BME280;62539;51.190;6.808;2023-04-15T09:20:16;100820.25;;;20.97;48.42
62617;BME280;62539;51.190;6.808;2023-04-15T09:22:46;100811.25;;;21.01;48.48
62617;BME280;62539;51.190;6.808;2023-04-15T09:27:56;100817.19;;;21.06;48.34
62617;BME280;62539;51.190;6.808;2023-04-15T09:30:24;100823.25;;;21.08;48.51
62617;BME280;62539;51.190;6.808;2023-04-15T09:32:52;100825.84;;;21.10;48.28
62617;BME280;62539;51.190;6.808;2023-04-15T09:35:23;100824.97;;;21.09;48.16
62617;BME280;62539;51.190;6.808;2023-04-15T09:37:51;100822.28;;;21.11;48.34
62617;BME280;62539;51.190;6.808;2023-04-15T09:40:36;100827.56;;;21.11;48.35
62617;BME280;62539;51.190;6.808;2023-04-15T09:43:04;100824.00;;;21.12;48.33
62617;BME280;62539;51.190;6.808;2023-04-15T09:45:31;100834.41;;;21.15;48.25
62617;BME280;62539;51.190;6.808;2023-04-15T09:47:58;100842.25;;;21.17;48.20
62617;BME280;62539;51.190;6.808;2023-04-15T09:50:40;100838.63;;;21.19;48.26
62617;BME280;62539;51.190;6.808;2023-04-15T09:53:09;100836.75;;;21.21;48.03
62617;BME280;62539;51.190;6.808;2023-04-15T09:55:36;100847.25;;;21.23;48.15
62617;BME280;62539;51.190;6.808;2023-04-15T09:58:07;100842.63;;;21.28;47.90
62617;BME280;62539;51.190;6.808;2023-04-15T10:00:34;100850.31;;;21.33;47.79
62617;BME280;62539;51.190;6.808;2023-04-15T10:03:02;100848.41;;;21.36;47.63
62617;BME280;62539;51.190;6.808;2023-04-15T10:05:30;100853.41;;;21.42;47.61
62617;BME280;62539;51.190;6.808;2023-04-15T10:07:56;100853.13;;;21.49;47.34
62617;BME280;62539;51.190;6.808;2023-04-15T10:10:23;100853.78;;;21.54;47.17
62617;BME280;62539;51.190;6.808;2023-04-15T10:12:48;100857.91;;;21.59;47.42
62617;BME280;62539;51.190;6.808;2023-04-15T10:15:17;100861.41;;;21.60;47.08
62617;BME280;62539;51.190;6.808;2023-04-15T10:17:44;100866.56;;;21.63;47.08
62617;BME280;62539;51.190;6.808;2023-04-15T10:20:11;100874.34;;;21.66;47.01
62617;BME280;62539;51.190;6.808;2023-04-15T10:22:39;100870.78;;;21.67;47.19
62617;BME280;62539;51.190;6.808;2023-04-15T10:25:06;100871.44;;;21.72;46.82
62617;BME280;62539;51.190;6.808;2023-04-15T10:27:33;100866.06;;;21.74;46.94
62617;BME280;62539;51.190;6.808;2023-04-15T10:29:59;100876.56;;;21.76;46.92
62617;BME280;62539;51.190;6.808;2023-04-15T10:32:28;100880.06;;;21.76;46.76
62617;BME280;62539;51.190;6.808;2023-04-15T10:34:54;100881.72;;;21.79;46.93
62617;BME280;62539;51.190;6.808;2023-04-15T10:37:22;100872.91;;;21.78;47.06
62617;BME280;62539;51.190;6.808;2023-04-15T10:39:57;100881.72;;;21.79;46.86
62617;BME280;62539;51.190;6.808;2023-04-15T10:42:23;100885.34;;;21.76;46.84
62617;BME280;62539;51.190;6.808;2023-04-15T10:44:50;100887.13;;;21.76;46.66
62617;BME280;62539;51.190;6.808;2023-04-15T10:47:18;100882.69;;;21.76;47.07
62617;BME280;62539;51.190;6.808;2023-04-15T10:49:50;100887.13;;;21.76;46.70
62617;BME280;62539;51.190;6.808;2023-04-15T10:52:24;100893.19;;;21.78;46.71
62617;BME280;62539;51.190;6.808;2023-04-15T10:57:37;100889.69;;;21.77;46.79
62617;BME280;62539;51.190;6.808;2023-04-15T11:00:09;100894.19;;;21.75;46.85
62617;BME280;62539;51.190;6.808;2023-04-15T11:02:42;100891.63;;;21.73;46.79
62617;BME280;62539;51.190;6.808;2023-04-15T11:05:12;100902.19;;;21.73;46.74
62617;BME280;62539;51.190;6.808;2023-04-15T11:12:42;100905.03;;;21.69;46.96
62617;BME280;62539;51.190;6.808;2023-04-15T11:18:21;100904.56;;;21.59;46.85
62617;BME280;62539;51.190;6.808;2023-04-15T11:20:59;100909.84;;;21.59;47.14
62617;BME280;62539;51.190;6.808;2023-04-15T11:23:44;100914.41;;;21.55;46.91
62617;BME280;62539;51.190;6.808;2023-04-15T11:26:11;100909.13;;;21.55;46.93
62617;BME280;62539;51.190;6.808;2023-04-15T11:28:39;100921.53;;;21.53;47.17
62617;BME280;62539;51.190;6.808;2023-04-15T11:31:10;100926.75;;;21.55;47.06
62617;BME280;62539;51.190;6.808;2023-04-15T11:33:44;100924.16;;;21.53;47.21
62617;BME280;62539;51.190;6.808;2023-04-15T11:36:11;100943.50;;;21.54;47.20
62617;BME280;62539;51.190;6.808;2023-04-15T11:38:41;100930.19;;;21.57;46.97
62617;BME280;62539;51.190;6.808;2023-04-15T11:41:08;100932.03;;;21.55;47.00
62617;BME280;62539;51.190;6.808;2023-04-15T11:43:33;100933.59;;;21.59;46.79
62617;BME280;62539;51.190;6.808;2023-04-15T11:46:01;100936.31;;;21.57;47.29
62617;BME280;62539;51.190;6.808;2023-04-15T11:48:29;100944.31;;;21.56;47.00
62617;BME280;62539;51.190;6.808;2023-04-15T11:50:59;100939.03;;;21.56;47.16
62617;BME280;62539;51.190;6.808;2023-04-15T11:56:01;100949.59;;;21.56;47.06
62617;BME280;62539;51.190;6.808;2023-04-15T11:58:28;100957.56;;;21.54;47.04
62617;BME280;62539;51.190;6.808;2023-04-15T12:00:58;100960.28;;;21.53;47.21
62617;BME280;62539;51.190;6.808;2023-04-15T12:03:29;100961.25;;;21.50;47.47
62617;BME280;62539;51.190;6.808;2023-04-15T12:06:23;100960.69;;;21.43;47.32
62617;BME280;62539;51.190;6.808;2023-04-15T12:09:02;100972.16;;;21.42;47.52
62617;BME280;62539;51.190;6.808;2023-04-15T12:11:34;100967.81;;;21.41;47.48
62617;BME280;62539;51.190;6.808;2023-04-15T12:14:24;100975.91;;;21.37;47.38
62617;BME280;62539;51.190;6.808;2023-04-15T12:17:04;100978.63;;;21.35;47.44
62617;BME280;62539;51.190;6.808;2023-04-15T12:19:35;100976.97;;;21.33;47.58
62617;BME280;62539;51.190;6.808;2023-04-15T12:22:08;100985.88;;;21.30;47.68
62617;BME280;62539;51.190;6.808;2023-04-15T12:24:35;100987.72;;;21.28;47.67
62617;BME280;62539;51.190;6.808;2023-04-15T12:27:06;100985.16;;;21.26;47.79
62617;BME280;62539;51.190;6.808;2023-04-15T12:29:41;100991.44;;;21.24;47.50
62617;BME280;62539;51.190;6.808;2023-04-15T12:32:16;101000.25;;;21.23;47.78
62617;BME280;62539;51.190;6.808;2023-04-15T12:34:52;100999.47;;;21.21;47.53
62617;BME280;62539;51.190;6.808;2023-04-15T12:37:21;101002.09;;;21.21;47.57
62617;BME280;62539;51.190;6.808;2023-04-15T12:39:47;101006.53;;;21.20;47.58
62617;BME280;62539;51.190;6.808;2023-04-15T12:42:15;101014.50;;;21.19;47.77
62617;BME280;62539;51.190;6.808;2023-04-15T12:44:41;101016.34;;;21.17;47.90
62617;BME280;62539;51.190;6.808;2023-04-15T12:47:08;101021.63;;;21.17;47.74
62617;BME280;62539;51.190;6.808;2023-04-15T12:49:35;101021.63;;;21.17;47.74
62617;BME280;62539;51.190;6.808;2023-04-15T12:52:01;101025.06;;;21.19;47.77
62617;BME280;62539;51.190;6.808;2023-04-15T12:54:30;101023.28;;;21.19;47.83
62617;BME280;62539;51.190;6.808;2023-04-15T12:56:57;101028.50;;;21.21;47.72
62617;BME280;62539;51.190;6.808;2023-04-15T12:59:23;101035.63;;;21.19;47.66
62617;BME280;62539;51.190;6.808;2023-04-15T13:01:50;101042.72;;;21.17;47.62
62617;BME280;62539;51.190;6.808;2023-04-15T13:04:16;101044.56;;;21.14;47.64